KPUW

Pullman / Moscow Regional Airport

Pullman/Moscow, Washington, USA
METAR KPUW 220153Z AUTO 31003KT 10SM CLR 21/11 A2994 RMK AO2 SLP130 T02110106
Observed Flight Rules
May-22 @ 01:53 UTC (43 minutes ago) Visual Flight Rules
Wind Visibility Clouds
310° at 3 knots 10 miles
  • Clear skies
Temperatures Readings
Current 21°C / 70°F
Dewpoint 11°C / 52°F
Humidity 53%
Altimeter 29.94" Hg
Pressure 1013 hPa
Elevation 773
METAR KPUW 220153Z AUTO 31003KT 10SM CLR 21/11 A2994 RMK AO2 SLP130 T02110106
Observed Flight Rules
May-22 @ 01:53 UTC
(43 minutes ago)
VFR
Wind Visibility
310° at 3 knots 10 miles
Clouds
  • Clear skies
Temperature Dewpoint
21°C / 70°F 11°C / 52°F
Humidity Altimeter Pressure
53% 29.94" Hg 1013 hPa